Time;durP1;ratioP1;P1;durP2;ratioP2;P2;SDS_P1;SDS_P2;PMS_P1;PMS_P2;Temp;Humidity;BMP_temperature;BMP_pressure;BME280_temperature;BME280_humidity;BME280_pressure;Samples;Min_cycle;Max_cycle;Signal;HPM_P1;HPM_P2
2023/02/28 00:00:28;;;;;;;6.93;4.70;;;;;;;-146.25;80.63;52313.44;2079752;28;20046;-70
2023/02/28 00:01:33;;;;;;;9.32;5.32;;;;;;;-146.25;80.50;52289.13;2072964;28;20097;-70
2023/02/28 00:02:35;;;;;;;7.90;5.07;;;;;;;-146.25;80.41;52289.13;2071888;28;32884;-71
2023/02/28 00:03:37;;;;;;;9.52;5.43;;;;;;;-146.25;80.64;52327.66;2079892;28;32386;-70
2023/02/28 00:04:38;;;;;;;10.35;5.63;;;;;;;-146.25;80.61;52311.44;2088630;28;34269;-70
2023/02/28 00:05:41;;;;;;;8.40;5.40;;;;;;;-146.25;80.92;52287.09;2088359;28;34670;-70
2023/02/28 00:06:43;;;;;;;8.07;5.30;;;;;;;-146.25;81.52;52319.53;2088181;28;34706;-72
2023/02/28 00:07:45;;;;;;;8.82;6.13;;;;;;;-146.25;81.21;52325.63;2087986;28;35442;-72
2023/02/28 00:08:47;;;;;;;9.93;6.18;;;;;;;-146.25;80.48;52339.81;2088588;28;20045;-72
2023/02/28 00:09:49;;;;;;;10.57;6.65;;;;;;;-146.25;80.62;52311.44;2078958;28;30939;-71
2023/02/28 00:10:50;;;;;;;10.32;6.32;;;;;;;-146.25;80.56;52325.63;2079571;28;32506;-72
2023/02/28 00:11:54;;;;;;;10.75;6.15;;;;;;;-146.25;80.25;52335.75;2088559;28;20038;-72
2023/02/28 00:13:05;;;;;;;10.90;5.95;;;;;;;-146.25;80.66;52311.44;2087826;28;39090;-72
2023/02/28 00:14:07;;;;;;;12.15;6.63;;;;;;;-146.25;80.19;52305.34;2088493;28;32908;-72
2023/02/28 00:15:10;;;;;;;9.90;5.60;;;;;;;-146.25;79.73;52319.53;2088048;28;32767;-72
2023/02/28 00:16:22;;;;;;;8.95;5.95;;;;;;;-146.25;80.30;52325.63;2087035;28;35743;-71
2023/02/28 00:17:24;;;;;;;11.07;6.70;;;;;;;-146.25;80.15;52331.69;2088275;28;33543;-69
2023/02/28 00:18:26;;;;;;;9.95;6.53;;;;;;;-146.25;80.26;52274.94;2088351;28;32467;-72
2023/02/28 00:19:28;;;;;;;12.10;6.43;;;;;;;-146.25;80.24;52321.56;2087647;28;38150;-70
2023/02/28 00:20:30;;;;;;;8.43;5.90;;;;;;;-146.25;80.27;52325.63;2088121;28;33963;-70
2023/02/28 00:21:32;;;;;;;8.65;5.50;;;;;;;-146.25;80.46;52335.75;2088039;28;33360;-70
2023/02/28 00:22:36;;;;;;;11.05;6.40;;;;;;;-146.25;80.34;52335.75;2079223;28;37143;-71
2023/02/28 00:23:38;;;;;;;10.25;6.25;;;;;;;-146.25;80.43;52327.66;2080319;28;20034;-71
2023/02/28 00:24:40;;;;;;;14.10;6.72;;;;;;;-146.25;80.74;52291.16;2088821;28;20041;-72
2023/02/28 00:25:42;;;;;;;12.75;6.13;;;;;;;-146.25;80.52;52339.81;2088055;28;36038;-70
2023/02/28 00:26:46;;;;;;;11.45;6.25;;;;;;;-146.25;80.51;52274.94;2088492;28;33373;-72
2023/02/28 00:27:48;;;;;;;8.93;5.75;;;;;;;-146.25;80.91;52335.75;2087989;28;34559;-72
2023/02/28 00:28:52;;;;;;;8.38;5.93;;;;;;;-146.25;80.55;52333.72;2088769;28;20922;-72
2023/02/28 00:29:54;;;;;;;10.25;5.57;;;;;;;-146.25;80.89;52317.50;2087826;28;28899;-70
2023/02/28 00:30:57;;;;;;;10.15;5.50;;;;;;;-146.25;80.84;52313.44;2079370;28;24304;-71
2023/02/28 00:31:59;;;;;;;10.13;6.03;;;;;;;-146.25;81.01;52327.66;2079437;28;27866;-70
2023/02/28 00:33:01;;;;;;;13.65;5.50;;;;;;;-146.25;81.05;52323.59;2088640;28;21748;-70
2023/02/28 00:34:02;;;;;;;9.18;5.20;;;;;;;-146.25;81.08;52303.31;2088277;28;27616;-70
2023/02/28 00:35:07;;;;;;;10.82;5.75;;;;;;;-146.25;81.21;52337.78;2079750;28;20081;-69
2023/02/28 00:36:11;;;;;;;9.43;5.03;;;;;;;-146.25;81.24;52333.72;2079709;28;21620;-70
2023/02/28 00:37:13;;;;;;;10.15;4.85;;;;;;;-146.25;81.37;52291.16;2087772;28;20156;-70
2023/02/28 00:38:15;;;;;;;11.10;6.03;;;;;;;-146.25;81.29;52295.19;2087711;28;32988;-67
2023/02/28 00:39:17;;;;;;;11.13;5.93;;;;;;;-146.25;81.26;52285.06;2088496;28;22871;-70
2023/02/28 00:40:19;;;;;;;10.18;5.78;;;;;;;-146.25;81.25;52337.78;2088470;28;25738;-71
2023/02/28 00:41:21;;;;;;;10.48;5.47;;;;;;;-146.25;81.58;52307.38;2088432;28;25111;-73
2023/02/28 00:42:23;;;;;;;10.45;5.07;;;;;;;-146.25;81.13;52337.78;2088577;28;22647;-71
2023/02/28 00:43:25;;;;;;;9.57;5.10;;;;;;;-146.25;81.03;52325.63;2088098;28;31467;-70
2023/02/28 00:44:28;;;;;;;8.32;5.28;;;;;;;-146.25;80.69;52309.41;2088861;28;20619;-70
2023/02/28 00:45:30;;;;;;;8.45;4.93;;;;;;;-146.25;80.78;52315.47;2078959;28;31991;-70
2023/02/28 00:46:32;;;;;;;9.13;4.85;;;;;;;-146.25;81.38;52264.78;2079514;28;25444;-71
2023/02/28 00:47:35;;;;;;;9.93;5.15;;;;;;;-146.25;80.81;52315.47;2078911;28;33359;-71
2023/02/28 00:48:37;;;;;;;8.40;5.05;;;;;;;-146.25;81.00;52309.41;2079354;28;31940;-71
2023/02/28 00:49:39;;;;;;;8.45;5.05;;;;;;;-146.25;81.37;52313.44;2079495;28;26016;-71
2023/02/28 00:50:40;;;;;;;8.13;5.22;;;;;;;-146.25;81.50;52339.81;2079619;28;27151;-71
2023/02/28 00:51:42;;;;;;;7.28;4.55;;;;;;;-146.25;81.16;52335.75;2079152;28;25030;-71
2023/02/28 00:52:44;;;;;;;8.45;5.47;;;;;;;-146.25;81.50;52297.22;2078971;28;30755;-72
2023/02/28 00:53:46;;;;;;;10.63;5.18;;;;;;;-146.25;81.44;52283.03;2079638;28;20934;-72
2023/02/28 00:54:48;;;;;;;10.73;5.22;;;;;;;-146.25;81.26;52307.38;2079474;28;28196;-72
2023/02/28 00:55:50;;;;;;;9.70;5.20;;;;;;;-146.25;81.23;52299.25;2079376;28;20057;-70
2023/02/28 00:56:52;;;;;;;8.30;5.20;;;;;;;-146.25;81.28;52339.81;2079480;28;22414;-72
2023/02/28 00:57:54;;;;;;;9.32;4.97;;;;;;;-146.25;81.51;52323.59;2088230;28;21844;-72
2023/02/28 00:58:55;;;;;;;8.30;4.80;;;;;;;-146.25;81.09;52317.50;2088709;28;20042;-71
2023/02/28 00:59:57;;;;;;;9.70;5.20;;;;;;;-146.25;81.49;52293.19;2088959;28;20127;-70
2023/02/28 01:00:59;;;;;;;9.02;5.00;;;;;;;-146.25;81.08;52323.59;2087958;28;24361;-71
2023/02/28 01:02:01;;;;;;;5.47;3.90;;;;;;;-146.25;81.31;52323.59;2079415;28;20835;-70
2023/02/28 01:03:02;;;;;;;9.00;4.82;;;;;;;-146.25;81.28;52366.16;2079399;28;23156;-71
2023/02/28 01:04:04;;;;;;;9.35;4.90;;;;;;;-146.25;81.24;52349.94;2080062;28;27057;-70
2023/02/28 01:05:07;;;;;;;10.55;5.00;;;;;;;-146.25;81.76;52337.78;2080041;28;29172;-71
2023/02/28 01:06:08;;;;;;;8.70;4.53;;;;;;;-146.25;81.42;52309.41;2079627;28;20034;-70
2023/02/28 01:07:14;;;;;;;8.63;4.50;;;;;;;-146.25;81.49;52307.38;2079530;28;20038;-70
2023/02/28 01:08:16;;;;;;;8.10;4.20;;;;;;;-146.25;81.67;52325.63;2072042;28;23138;-70
2023/02/28 01:09:18;;;;;;;7.75;4.30;;;;;;;-146.25;81.94;52319.53;2072863;28;21070;-71
2023/02/28 01:10:20;;;;;;;9.00;5.00;;;;;;;-146.25;81.86;52303.31;2080943;28;20423;-70
2023/02/28 01:11:23;;;;;;;8.48;4.78;;;;;;;-146.25;81.67;52289.13;2073528;28;20053;-71
2023/02/28 01:12:29;;;;;;;8.40;4.95;;;;;;;-146.25;81.22;52345.91;2081373;28;20046;-70
2023/02/28 01:13:31;;;;;;;7.10;4.72;;;;;;;-146.25;81.07;52317.50;2089833;28;22285;-70
2023/02/28 01:14:34;;;;;;;6.55;4.40;;;;;;;-146.25;80.93;52323.59;2089243;28;37370;-71
2023/02/28 01:15:35;;;;;;;7.78;4.50;;;;;;;-146.25;81.29;52331.69;2089946;28;24922;-70
2023/02/28 01:16:39;;;;;;;9.07;4.68;;;;;;;-146.25;80.88;52287.09;2089688;28;20042;-70
2023/02/28 01:17:43;;;;;;;9.13;5.32;;;;;;;-146.25;81.46;52339.81;2089653;28;29175;-70
2023/02/28 01:18:44;;;;;;;8.07;5.25;;;;;;;-146.25;81.51;52307.38;2090241;28;20044;-70
2023/02/28 01:19:46;;;;;;;8.68;5.35;;;;;;;-146.25;81.46;52305.34;2080871;28;20034;-70
2023/02/28 01:20:49;;;;;;;11.85;5.78;;;;;;;-146.25;82.05;52295.19;2081097;28;20068;-70
2023/02/28 01:21:50;;;;;;;9.10;5.53;;;;;;;-146.25;81.51;52319.53;2089836;28;20033;-70
2023/02/28 01:22:52;;;;;;;8.80;5.05;;;;;;;-146.25;81.73;52293.19;2090135;28;20160;-70
2023/02/28 01:23:57;;;;;;;10.55;5.30;;;;;;;-146.25;81.50;52295.19;2089881;28;31114;-70
2023/02/28 01:24:59;;;;;;;10.50;4.88;;;;;;;-146.25;81.91;52311.44;2080447;28;28366;-70
2023/02/28 01:26:14;;;;;;;8.40;4.63;;;;;;;-146.25;81.90;52331.69;2081142;28;30260;-70
2023/02/28 01:27:15;;;;;;;8.65;4.85;;;;;;;-146.25;82.22;52374.28;2089691;28;29613;-70
2023/02/28 01:28:17;;;;;;;7.30;4.43;;;;;;;-146.25;81.82;52319.53;2089117;28;20128;-70
2023/02/28 01:29:19;;;;;;;5.60;3.90;;;;;;;-146.25;82.16;52305.34;2089147;28;28616;-70
2023/02/28 01:30:21;;;;;;;7.30;4.65;;;;;;;-146.25;82.85;52291.16;2090048;28;20822;-70
2023/02/28 01:31:23;;;;;;;6.43;4.60;;;;;;;-146.25;82.68;52313.44;2080322;28;28447;-70
2023/02/28 01:32:25;;;;;;;7.55;4.93;;;;;;;-146.25;82.53;52323.59;2072364;28;23486;-70
2023/02/28 01:33:28;;;;;;;7.07;4.57;;;;;;;-146.25;83.08;52358.06;2073273;28;20674;-70
2023/02/28 01:34:30;;;;;;;9.60;4.82;;;;;;;-146.25;83.28;52313.44;2080976;28;24571;-70
2023/02/28 01:35:36;;;;;;;7.90;5.05;;;;;;;-146.25;83.32;52309.41;2089045;28;24703;-70
2023/02/28 01:36:38;;;;;;;7.30;4.78;;;;;;;-146.25;83.51;52349.94;2080982;28;20796;-71
2023/02/28 01:37:39;;;;;;;6.95;4.22;;;;;;;-146.25;83.52;52317.50;2080904;28;33938;-70
2023/02/28 01:38:42;;;;;;;6.28;4.20;;;;;;;-146.25;83.74;52309.41;2089445;28;30197;-70
2023/02/28 01:39:48;;;;;;;6.22;4.18;;;;;;;-146.25;83.34;52323.59;2089202;28;27455;-72
2023/02/28 01:40:53;;;;;;;7.28;4.22;;;;;;;-146.25;84.02;52297.22;2089416;28;30382;-71
2023/02/28 01:41:55;;;;;;;8.30;4.60;;;;;;;-146.25;83.79;52311.44;2088941;28;27725;-71
2023/02/28 01:42:57;;;;;;;11.65;5.03;;;;;;;-146.25;83.80;52291.16;2088580;28;36821;-71
2023/02/28 01:44:03;;;;;;;9.73;5.10;;;;;;;-146.25;83.91;52287.09;2080860;28;20050;-70
2023/02/28 01:45:19;;;;;;;6.63;4.07;;;;;;;-146.25;83.90;52319.53;2082083;28;20030;-70
2023/02/28 01:46:21;;;;;;;6.78;4.57;;;;;;;-146.25;84.47;52343.88;2081046;28;20030;-70
2023/02/28 01:47:28;;;;;;;10.45;4.78;;;;;;;-146.25;83.96;52307.38;2081991;28;20932;-72
2023/02/28 01:48:38;;;;;;;9.60;4.13;;;;;;;-146.25;83.97;52343.88;2080945;28;20907;-70
2023/02/28 01:49:40;;;;;;;8.43;4.70;;;;;;;-146.25;84.28;52335.75;2083303;28;20140;-70
2023/02/28 01:50:46;;;;;;;9.88;4.72;;;;;;;-146.25;84.18;52307.38;2089178;28;20049;-70
2023/02/28 01:51:54;;;;;;;7.32;4.88;;;;;;;-146.25;83.75;52272.91;2080301;28;29198;-70
2023/02/28 01:53:06;;;;;;;7.57;4.43;;;;;;;-146.25;83.97;52321.56;2074448;28;20046;-70
2023/02/28 01:54:16;;;;;;;6.53;4.03;;;;;;;-146.25;83.90;52323.59;2074531;28;34064;-70
2023/02/28 01:55:21;;;;;;;6.53;4.10;;;;;;;-146.25;84.10;52339.81;2074012;28;33369;-70
2023/02/28 01:56:30;;;;;;;7.63;4.13;;;;;;;-146.25;84.04;52276.97;2081500;28;20049;-71
2023/02/28 01:57:40;;;;;;;7.10;4.75;;;;;;;-146.25;83.98;52351.97;2081005;28;20050;-70
2023/02/28 01:58:42;;;;;;;8.30;4.20;;;;;;;-146.25;84.02;52360.09;2073814;28;20807;-70
2023/02/28 01:59:52;;;;;;;7.90;4.35;;;;;;;-146.25;83.87;52349.94;2073339;28;20042;-70
2023/02/28 02:00:54;;;;;;;8.52;4.60;;;;;;;-146.25;84.09;52319.53;2072151;28;21405;-70
2023/02/28 02:01:56;;;;;;;6.82;4.78;;;;;;;-146.25;83.65;52317.50;2073509;28;20093;-70
2023/02/28 02:03:05;;;;;;;9.02;4.65;;;;;;;-146.25;84.32;52303.31;2080472;28;26721;-70
2023/02/28 02:04:07;;;;;;;5.47;3.78;;;;;;;-146.25;83.85;52287.09;2082099;28;27328;-70
2023/02/28 02:05:15;;;;;;;7.10;4.20;;;;;;;-146.25;83.46;52347.91;2080388;28;20054;-70
2023/02/28 02:06:17;;;;;;;9.75;4.63;;;;;;;-146.25;84.09;52356.03;2081900;28;20116;-70
2023/02/28 02:07:20;;;;;;;8.18;4.88;;;;;;;-146.25;83.87;52327.66;2089514;28;20042;-71
2023/02/28 02:08:26;;;;;;;8.10;4.60;;;;;;;-146.25;84.20;52311.44;2072233;28;26988;-70
2023/02/28 02:09:27;;;;;;;8.88;5.03;;;;;;;-146.25;84.03;52319.53;2073963;28;29843;-68
2023/02/28 02:10:39;;;;;;;9.05;4.95;;;;;;;-146.25;84.46;52321.56;2088482;28;20053;-71
2023/02/28 02:11:44;;;;;;;9.32;4.80;;;;;;;-146.25;84.68;52362.13;2072431;28;20209;-70
2023/02/28 02:13:12;;;;;;;7.50;5.40;;;;;;;-146.25;84.73;52331.69;2076041;28;20149;-70
2023/02/28 02:14:39;;;;;;;7.05;5.25;;;;;;;-146.25;84.81;52339.81;2080649;28;20177;-70
2023/02/28 02:16:08;;;;;;;8.05;5.25;;;;;;;-146.25;84.49;52297.22;2086528;28;20788;-70
2023/02/28 02:17:26;;;;;;;8.20;5.20;;;;;;;-146.25;84.34;52331.69;2087937;28;33885;-70
2023/02/28 02:18:43;;;;;;;9.20;5.93;;;;;;;-146.25;84.61;52335.75;2080277;28;27425;-69
2023/02/28 02:20:58;;;;;;;11.48;5.68;;;;;;;-146.25;84.70;52315.47;2083460;28;28795;-72
2023/02/28 02:22:11;;;;;;;7.90;4.90;;;;;;;-146.25;84.89;52287.09;2036523;28;20870;-70
2023/02/28 02:23:58;;;;;;;9.70;5.82;;;;;;;-146.25;84.81;52349.94;2055898;28;28578;-70
2023/02/28 02:25:35;;;;;;;8.48;5.32;;;;;;;-146.25;85.09;52335.75;2037553;28;31480;-70
2023/02/28 02:27:18;;;;;;;7.95;5.57;;;;;;;-146.25;85.25;52354.00;2026804;29;34110;-71
2023/02/28 02:29:22;;;;;;;9.27;5.32;;;;;;;-146.25;85.42;52295.19;2047184;28;20071;-70
2023/02/28 02:30:54;;;;;;;7.22;4.28;;;;;;;-146.25;85.48;52347.91;2058463;28;27462;-71
2023/02/28 02:32:25;;;;;;;8.13;5.10;;;;;;;-146.25;86.06;52376.31;2085465;28;20033;-71
2023/02/28 02:33:45;;;;;;;10.00;6.03;;;;;;;-146.25;86.67;52327.66;2080494;28;20050;-71
2023/02/28 02:35:10;;;;;;;11.23;6.18;;;;;;;-146.25;86.62;52339.81;2086201;28;31655;-71
2023/02/28 02:36:35;;;;;;;9.98;6.07;;;;;;;-146.25;86.46;52366.16;2089678;28;20791;-71
2023/02/28 02:37:48;;;;;;;9.77;6.03;;;;;;;-146.25;86.36;52362.13;2080103;28;34082;-71
2023/02/28 02:39:02;;;;;;;10.57;6.18;;;;;;;-146.25;86.30;52317.50;2083847;28;24423;-70
2023/02/28 02:40:20;;;;;;;7.88;5.57;;;;;;;-146.25;86.45;52347.91;2089161;28;27519;-70
2023/02/28 02:41:46;;;;;;;9.82;5.43;;;;;;;-146.25;86.41;52309.41;2089624;28;21021;-70
2023/02/28 02:43:11;;;;;;;8.88;5.60;;;;;;;-146.25;86.79;52378.34;2080134;28;28312;-70
2023/02/28 02:44:38;;;;;;;9.43;5.50;;;;;;;-146.25;86.91;52329.66;2077230;28;29575;-70
2023/02/28 02:45:59;;;;;;;9.43;5.80;;;;;;;-146.25;87.30;52321.56;2086129;28;24512;-70
2023/02/28 02:47:20;;;;;;;9.18;5.63;;;;;;;-146.25;87.11;52287.09;2088943;28;20937;-71
2023/02/28 02:48:30;;;;;;;6.50;4.90;;;;;;;-146.25;87.12;52274.94;2089728;28;20792;-70
2023/02/28 02:49:35;;;;;;;9.65;5.22;;;;;;;-146.25;86.88;52323.59;2072241;28;20026;-71
2023/02/28 02:50:45;;;;;;;8.05;5.20;;;;;;;-146.25;86.95;52321.56;2073641;28;24227;-70
2023/02/28 02:51:49;;;;;;;9.23;5.38;;;;;;;-146.25;87.46;52307.38;2089748;28;20050;-70
2023/02/28 02:52:58;;;;;;;9.10;5.40;;;;;;;-146.25;87.78;52323.59;2080932;28;20925;-70
2023/02/28 02:54:15;;;;;;;9.07;4.70;;;;;;;-146.25;88.29;52323.59;2081547;28;23992;-70
2023/02/28 02:55:19;;;;;;;11.85;6.55;;;;;;;-146.25;88.62;52321.56;2080297;28;20119;-70
2023/02/28 02:56:26;;;;;;;10.90;6.13;;;;;;;-146.25;88.67;52319.53;2072141;28;21872;-70
2023/02/28 02:57:47;;;;;;;10.77;6.15;;;;;;;-146.25;88.50;52347.91;2072322;28;28026;-70
2023/02/28 02:58:54;;;;;;;9.40;5.63;;;;;;;-146.25;87.84;52325.63;2066308;28;20032;-69
2023/02/28 02:59:59;;;;;;;9.40;5.90;;;;;;;-146.25;88.14;52303.31;2083155;28;20895;-70
2023/02/28 03:01:04;;;;;;;9.52;6.35;;;;;;;-146.25;88.32;52323.59;2080249;28;23330;-70
2023/02/28 03:02:12;;;;;;;10.00;6.05;;;;;;;-146.25;88.22;52349.94;2080909;28;23138;-70
2023/02/28 03:03:20;;;;;;;9.40;6.07;;;;;;;-146.25;88.47;52327.66;2080065;28;22749;-70
2023/02/28 03:04:27;;;;;;;7.88;5.72;;;;;;;-146.25;88.79;52262.75;2081791;28;33406;-70
2023/02/28 03:05:50;;;;;;;11.80;6.22;;;;;;;-146.25;88.82;52333.72;2070961;28;25759;-70
2023/02/28 03:06:55;;;;;;;15.80;6.22;;;;;;;-146.25;89.07;52317.50;2070958;28;23092;-70
2023/02/28 03:07:57;;;;;;;8.68;5.95;;;;;;;-146.25;88.86;52323.59;2081328;28;20091;-70
2023/02/28 03:09:01;;;;;;;10.25;6.50;;;;;;;-146.25;89.25;52339.81;2088966;28;20046;-70
2023/02/28 03:10:03;;;;;;;10.25;6.20;;;;;;;-146.25;89.22;52311.44;2088779;28;25445;-70
2023/02/28 03:11:15;;;;;;;10.68;5.90;;;;;;;-146.25;89.12;52325.63;2088376;28;32633;-69
2023/02/28 03:12:18;;;;;;;10.82;6.97;;;;;;;-146.25;89.66;52313.44;2080220;28;20042;-70
2023/02/28 03:13:33;;;;;;;10.13;6.90;;;;;;;-146.25;89.49;52311.44;2080261;28;20041;-69
2023/02/28 03:15:16;;;;;;;10.82;6.40;;;;;;;-146.25;89.67;52311.44;2088233;28;20823;-70
2023/02/28 03:16:43;;;;;;;11.60;6.72;;;;;;;-146.25;89.92;52317.50;2088476;28;20044;-70
2023/02/28 03:17:58;;;;;;;10.05;6.70;;;;;;;-146.25;89.19;52329.66;2079506;28;20884;-70
2023/02/28 03:19:42;;;;;;;10.63;6.28;;;;;;;-146.25;89.29;52325.63;2073102;28;29054;-70
2023/02/28 03:21:17;;;;;;;11.93;6.93;;;;;;;-146.25;89.02;52360.09;2086115;28;25876;-70
2023/02/28 03:22:40;;;;;;;9.35;5.88;;;;;;;-146.25;89.09;52319.53;2088611;28;37695;-70
2023/02/28 03:24:32;;;;;;;9.85;5.35;;;;;;;-146.25;89.33;52317.50;2089478;28;20146;-70
2023/02/28 03:26:13;;;;;;;11.48;6.65;;;;;;;-146.25;89.08;52299.25;2063067;28;20162;-70
2023/02/28 03:27:25;;;;;;;12.43;7.32;;;;;;;-146.25;89.38;52307.38;2088215;28;34633;-70
2023/02/28 03:29:02;;;;;;;8.07;6.10;;;;;;;-146.25;89.51;52333.72;2071287;28;37322;-70
2023/02/28 03:30:54;;;;;;;10.27;6.55;;;;;;;-146.25;89.08;52351.97;2058815;28;35744;-70
2023/02/28 03:32:24;;;;;;;9.98;6.18;;;;;;;-146.25;89.12;52311.44;2067529;28;32407;-70
2023/02/28 03:33:32;;;;;;;10.80;6.63;;;;;;;-146.25;89.12;52319.53;2088800;28;34734;-69
2023/02/28 03:34:43;;;;;;;9.05;6.03;;;;;;;-146.25;89.46;52368.19;2079589;28;35869;-69
2023/02/28 03:36:00;;;;;;;9.15;6.22;;;;;;;-146.25;88.97;52360.09;2081349;28;36397;-70
2023/02/28 03:37:08;;;;;;;8.00;5.55;;;;;;;-146.25;89.35;52358.06;2079340;28;36983;-70
2023/02/28 03:38:23;;;;;;;10.02;6.13;;;;;;;-146.25;89.51;52323.59;2073878;28;35151;-70
2023/02/28 03:39:37;;;;;;;11.63;7.20;;;;;;;-146.25;89.17;52293.19;2074039;28;34107;-70
2023/02/28 03:40:45;;;;;;;13.27;7.03;;;;;;;-146.25;89.54;52329.66;2073638;28;36966;-70
2023/02/28 03:41:59;;;;;;;10.73;6.72;;;;;;;-146.25;90.07;52307.38;2081659;28;34690;-70
2023/02/28 03:43:12;;;;;;;11.38;6.70;;;;;;;-146.25;89.14;52356.03;2079197;28;37825;-70
2023/02/28 03:44:24;;;;;;;11.48;6.15;;;;;;;-146.25;89.41;52309.41;2074224;28;34565;-70
2023/02/28 03:45:30;;;;;;;9.82;6.65;;;;;;;-146.25;89.53;52327.66;2073997;28;36676;-70
2023/02/28 03:46:39;;;;;;;8.80;6.57;;;;;;;-146.25;89.51;52347.91;2074418;28;20041;-69
2023/02/28 03:47:51;;;;;;;11.85;7.18;;;;;;;-146.25;89.33;52349.94;2072606;28;38207;-69
2023/02/28 03:49:09;;;;;;;12.88;7.43;;;;;;;-146.25;89.76;52339.81;2082408;28;34102;-69
2023/02/28 03:50:21;;;;;;;13.95;7.30;;;;;;;-146.25;90.35;52291.16;2080210;28;20048;-70
2023/02/28 03:51:27;;;;;;;12.18;6.68;;;;;;;-146.25;89.89;52335.75;2074446;28;37431;-68
2023/02/28 03:52:36;;;;;;;10.70;7.13;;;;;;;-146.25;90.04;52327.66;2065107;28;34875;-70
2023/02/28 03:53:48;;;;;;;11.23;7.70;;;;;;;-146.25;89.64;52266.81;2065073;28;32874;-69
2023/02/28 03:54:55;;;;;;;12.32;8.00;;;;;;;-146.25;89.89;52323.59;2065288;28;36838;-69
2023/02/28 03:56:22;;;;;;;12.77;7.18;;;;;;;-146.25;90.31;52307.38;2074387;28;20070;-68
2023/02/28 03:57:33;;;;;;;12.48;8.00;;;;;;;-146.25;90.38;52319.53;2079661;28;39452;-71
2023/02/28 03:58:57;;;;;;;10.27;7.03;;;;;;;-146.25;90.31;52351.97;2079954;28;21625;-70
2023/02/28 04:00:08;;;;;;;10.13;6.90;;;;;;;-146.25;89.77;52343.88;2079591;28;33637;-70
2023/02/28 04:01:27;;;;;;;11.43;7.10;;;;;;;-146.25;90.38;52331.69;2071983;28;20852;-70
2023/02/28 04:02:30;;;;;;;11.57;6.82;;;;;;;-146.25;90.07;52323.59;2069656;28;35588;-71
2023/02/28 04:03:32;;;;;;;12.25;6.95;;;;;;;-146.25;90.02;52319.53;2072959;28;36285;-70
2023/02/28 04:04:34;;;;;;;13.63;6.90;;;;;;;-146.25;90.00;52319.53;2071481;28;34885;-69
2023/02/28 04:05:54;;;;;;;9.88;6.05;;;;;;;-146.25;89.36;52323.59;2079949;28;33095;-70
2023/02/28 04:07:08;;;;;;;10.80;6.20;;;;;;;-146.25;89.02;52319.53;2088332;28;34536;-69
2023/02/28 04:08:12;;;;;;;9.70;6.25;;;;;;;-146.25;88.94;52321.56;2079094;28;35172;-70
2023/02/28 04:09:15;;;;;;;9.80;6.25;;;;;;;-146.25;88.95;52319.53;2073033;28;20730;-70
2023/02/28 04:10:20;;;;;;;10.85;6.32;;;;;;;-146.25;88.83;52343.88;2079813;28;32129;-70
2023/02/28 04:11:34;;;;;;;10.10;6.82;;;;;;;-146.25;88.61;52331.69;2088367;28;32651;-70
2023/02/28 04:12:36;;;;;;;11.60;6.60;;;;;;;-146.25;88.44;52311.44;2088543;28;34655;-70
2023/02/28 04:13:38;;;;;;;10.65;6.65;;;;;;;-146.25;88.55;52319.53;2088390;28;36123;-70
2023/02/28 04:14:41;;;;;;;9.27;5.75;;;;;;;-146.25;88.32;52307.38;2088229;28;29817;-70
2023/02/28 04:15:43;;;;;;;9.30;5.80;;;;;;;-146.25;88.73;52291.16;2088834;28;20038;-70
2023/02/28 04:16:48;;;;;;;8.50;5.50;;;;;;;-146.25;89.12;52360.09;2088713;28;20045;-70
2023/02/28 04:17:49;;;;;;;11.43;6.47;;;;;;;-146.25;88.84;52331.69;2087943;28;20041;-70
2023/02/28 04:18:51;;;;;;;9.43;6.60;;;;;;;-146.25;88.11;52295.19;2088077;28;33089;-70
2023/02/28 04:19:56;;;;;;;11.95;7.07;;;;;;;-146.25;88.76;52319.53;2079542;28;31820;-70
2023/02/28 04:21:00;;;;;;;10.05;6.10;;;;;;;-146.25;88.42;52301.28;2080138;28;32893;-70
2023/02/28 04:22:02;;;;;;;11.90;6.30;;;;;;;-146.25;88.09;52272.91;2079321;28;38893;-70
2023/02/28 04:23:04;;;;;;;12.05;6.70;;;;;;;-146.25;88.03;52329.66;2079569;28;32330;-70
2023/02/28 04:24:08;;;;;;;10.32;6.15;;;;;;;-146.25;88.35;52339.81;2088186;28;35552;-70
2023/02/28 04:25:10;;;;;;;9.05;6.05;;;;;;;-146.25;87.90;52327.66;2088157;28;34837;-70
2023/02/28 04:26:12;;;;;;;9.95;5.80;;;;;;;-146.25;88.24;52295.19;2088338;28;35487;-70
2023/02/28 04:27:16;;;;;;;10.25;6.15;;;;;;;-146.25;88.08;52299.25;2088864;28;20037;-71
2023/02/28 04:28:18;;;;;;;9.18;5.88;;;;;;;-146.25;88.01;52295.19;2088186;28;32474;-70
2023/02/28 04:29:22;;;;;;;11.07;6.50;;;;;;;-146.25;88.05;52356.03;2087902;28;31707;-70
2023/02/28 04:30:24;;;;;;;11.30;6.78;;;;;;;-146.25;88.49;52329.66;2088216;28;36797;-70
2023/02/28 04:31:26;;;;;;;11.88;7.20;;;;;;;-146.25;88.55;52333.72;2087977;28;31010;-70
2023/02/28 04:32:28;;;;;;;11.93;7.25;;;;;;;-146.25;88.20;52289.13;2088065;28;32485;-70
2023/02/28 04:33:31;;;;;;;8.18;6.70;;;;;;;-146.25;88.40;52321.56;2087757;28;36082;-70
2023/02/28 04:34:33;;;;;;;9.23;6.40;;;;;;;-146.25;87.75;52311.44;2087981;28;20091;-70
2023/02/28 04:35:35;;;;;;;12.57;6.70;;;;;;;-146.25;88.13;52327.66;2087911;28;33730;-70
2023/02/28 04:36:39;;;;;;;11.48;6.50;;;;;;;-146.25;88.38;52358.06;2088233;28;35897;-71
2023/02/28 04:37:40;;;;;;;10.55;6.43;;;;;;;-146.25;87.60;52313.44;2087619;28;35408;-70
2023/02/28 04:38:42;;;;;;;14.02;7.47;;;;;;;-146.25;87.73;52295.19;2088351;28;32134;-70
2023/02/28 04:39:46;;;;;;;10.77;6.45;;;;;;;-146.25;88.45;52358.06;2088627;28;20038;-71
2023/02/28 04:40:48;;;;;;;13.90;7.32;;;;;;;-146.25;88.20;52347.91;2087974;28;36255;-70
2023/02/28 04:41:50;;;;;;;13.23;7.38;;;;;;;-146.25;87.63;52339.81;2087858;28;33006;-70
2023/02/28 04:42:52;;;;;;;11.75;7.22;;;;;;;-146.25;87.68;52358.06;2087482;28;34377;-70
2023/02/28 04:43:54;;;;;;;11.10;7.50;;;;;;;-146.25;86.80;52341.84;2088247;28;34986;-71
2023/02/28 04:44:55;;;;;;;13.07;7.45;;;;;;;-146.25;87.32;52368.19;2088560;28;20520;-70
2023/02/28 04:46:01;;;;;;;10.75;7.05;;;;;;;-146.25;86.74;52335.75;2087805;28;38216;-70
2023/02/28 04:47:03;;;;;;;11.30;6.90;;;;;;;-146.25;86.91;52343.88;2088111;28;34312;-70
2023/02/28 04:48:05;;;;;;;13.25;7.15;;;;;;;-146.25;86.15;52315.47;2087865;28;33299;-70
2023/02/28 04:49:08;;;;;;;13.88;7.18;;;;;;;-146.25;86.42;52351.97;2088179;28;33857;-70
2023/02/28 04:50:10;;;;;;;11.30;7.25;;;;;;;-146.25;86.86;52305.34;2088744;28;20835;-70
2023/02/28 04:51:17;;;;;;;12.27;7.25;;;;;;;-146.25;86.65;52337.78;2088029;28;38137;-70
2023/02/28 04:52:19;;;;;;;10.10;7.07;;;;;;;-146.25;86.68;52313.44;2087907;28;35941;-70
2023/02/28 04:53:21;;;;;;;11.43;7.10;;;;;;;-146.25;86.29;52347.91;2088116;28;35440;-70
2023/02/28 04:54:23;;;;;;;10.90;7.05;;;;;;;-146.25;86.98;52315.47;2087966;28;33071;-70
2023/02/28 04:55:24;;;;;;;12.05;7.43;;;;;;;-146.25;87.16;52337.78;2088146;28;34126;-70
2023/02/28 04:56:28;;;;;;;12.48;7.05;;;;;;;-146.25;86.48;52297.22;2078683;28;35708;-71
2023/02/28 04:57:30;;;;;;;10.00;6.38;;;;;;;-146.25;87.11;52323.59;2080355;28;24135;-70
2023/02/28 04:58:32;;;;;;;10.18;6.88;;;;;;;-146.25;87.24;52351.97;2087967;28;34273;-70
2023/02/28 04:59:34;;;;;;;9.23;6.95;;;;;;;-146.25;86.92;52366.16;2087844;28;36577;-70
2023/02/28 05:00:36;;;;;;;16.13;8.07;;;;;;;-146.25;87.57;52358.06;2078634;28;33951;-70
2023/02/28 05:01:40;;;;;;;13.75;7.75;;;;;;;-146.25;87.16;52333.72;2079290;28;34906;-70
2023/02/28 05:02:42;;;;;;;10.52;7.32;;;;;;;-146.25;87.09;52345.91;2087027;28;33248;-71
2023/02/28 05:03:44;;;;;;;9.68;6.68;;;;;;;-146.25;87.09;52311.44;2087581;28;37417;-71
2023/02/28 05:04:45;;;;;;;9.57;7.00;;;;;;;-146.25;86.59;52327.66;2087719;28;33387;-71
2023/02/28 05:05:48;;;;;;;10.60;7.13;;;;;;;-146.25;87.03;52323.59;2088036;28;34903;-71
2023/02/28 05:06:49;;;;;;;13.80;7.78;;;;;;;-146.25;86.88;52327.66;2087650;28;34769;-70
2023/02/28 05:07:53;;;;;;;8.68;6.45;;;;;;;-146.25;87.36;52337.78;2088206;28;32251;-71
2023/02/28 05:08:55;;;;;;;12.75;7.45;;;;;;;-146.25;86.97;52258.72;2078573;28;34929;-70
2023/02/28 05:09:57;;;;;;;10.73;7.38;;;;;;;-146.25;87.27;52331.69;2079472;28;34730;-71
2023/02/28 05:11:00;;;;;;;12.70;7.10;;;;;;;-146.25;86.91;52321.56;2087779;28;32922;-71
2023/02/28 05:12:05;;;;;;;13.82;7.50;;;;;;;-146.25;87.48;52354.00;2087903;28;35868;-70